sensor_id;sensor_type;location;lat;lon;timestamp;P1;durP1;ratioP1;P2;durP2;ratioP2
80273;SDS011;69576;51.902;-8.462;2023-11-18T00:01:55;1.17;;;1.02;;
80273;SDS011;69576;51.902;-8.462;2023-11-18T00:04:21;1.10;;;0.60;;
80273;SDS011;69576;51.902;-8.462;2023-11-18T00:06:47;0.80;;;0.80;;
80273;SDS011;69576;51.902;-8.462;2023-11-18T00:09:13;1.05;;;0.85;;
80273;SDS011;69576;51.902;-8.462;2023-11-18T00:11:39;1.63;;;1.08;;
80273;SDS011;69576;51.902;-8.462;2023-11-18T00:14:08;1.20;;;1.10;;
80273;SDS011;69576;51.902;-8.462;2023-11-18T00:16:36;1.38;;;0.90;;
80273;SDS011;69576;51.902;-8.462;2023-11-18T00:19:04;1.73;;;1.10;;
80273;SDS011;69576;51.902;-8.462;2023-11-18T00:21:30;1.23;;;0.85;;
80273;SDS011;69576;51.902;-8.462;2023-11-18T00:23:56;1.55;;;1.23;;
80273;SDS011;69576;51.902;-8.462;2023-11-18T00:26:22;0.88;;;0.60;;
80273;SDS011;69576;51.902;-8.462;2023-11-18T00:28:48;0.80;;;0.80;;
80273;SDS011;69576;51.902;-8.462;2023-11-18T00:31:14;1.65;;;1.02;;
80273;SDS011;69576;51.902;-8.462;2023-11-18T00:33:40;1.58;;;1.17;;
80273;SDS011;69576;51.902;-8.462;2023-11-18T00:36:06;1.30;;;1.20;;
80273;SDS011;69576;51.902;-8.462;2023-11-18T00:38:34;1.27;;;1.17;;
80273;SDS011;69576;51.902;-8.462;2023-11-18T00:41:02;1.27;;;0.98;;
80273;SDS011;69576;51.902;-8.462;2023-11-18T00:43:28;1.25;;;1.00;;
80273;SDS011;69576;51.902;-8.462;2023-11-18T00:45:59;1.52;;;1.08;;
80273;SDS011;69576;51.902;-8.462;2023-11-18T00:48:29;1.80;;;0.90;;
80273;SDS011;69576;51.902;-8.462;2023-11-18T00:50:57;1.95;;;1.00;;
80273;SDS011;69576;51.902;-8.462;2023-11-18T00:53:23;1.83;;;0.95;;
80273;SDS011;69576;51.902;-8.462;2023-11-18T00:55:49;1.40;;;0.93;;
80273;SDS011;69576;51.902;-8.462;2023-11-18T00:58:18;3.45;;;1.20;;
80273;SDS011;69576;51.902;-8.462;2023-11-18T01:00:46;1.67;;;1.20;;
80273;SDS011;69576;51.902;-8.462;2023-11-18T01:03:14;1.30;;;0.90;;
80273;SDS011;69576;51.902;-8.462;2023-11-18T01:05:43;2.63;;;1.30;;
80273;SDS011;69576;51.902;-8.462;2023-11-18T01:08:09;1.17;;;0.82;;
80273;SDS011;69576;51.902;-8.462;2023-11-18T01:10:37;5.13;;;1.40;;
80273;SDS011;69576;51.902;-8.462;2023-11-18T01:13:08;2.47;;;1.48;;
80273;SDS011;69576;51.902;-8.462;2023-11-18T01:15:36;1.55;;;1.15;;
80273;SDS011;69576;51.902;-8.462;2023-11-18T01:18:06;3.20;;;1.45;;
80273;SDS011;69576;51.902;-8.462;2023-11-18T01:20:37;2.75;;;1.30;;
80273;SDS011;69576;51.902;-8.462;2023-11-18T01:23:05;3.08;;;1.20;;
80273;SDS011;69576;51.902;-8.462;2023-11-18T01:25:33;4.47;;;1.27;;
80273;SDS011;69576;51.902;-8.462;2023-11-18T01:27:59;1.77;;;1.10;;
80273;SDS011;69576;51.902;-8.462;2023-11-18T01:30:29;1.75;;;1.20;;
80273;SDS011;69576;51.902;-8.462;2023-11-18T01:32:54;3.92;;;1.27;;
80273;SDS011;69576;51.902;-8.462;2023-11-18T01:35:21;3.83;;;1.67;;
80273;SDS011;69576;51.902;-8.462;2023-11-18T01:37:54;5.07;;;1.40;;
80273;SDS011;69576;51.902;-8.462;2023-11-18T01:40:20;3.30;;;1.65;;
80273;SDS011;69576;51.902;-8.462;2023-11-18T01:42:46;3.05;;;1.30;;
80273;SDS011;69576;51.902;-8.462;2023-11-18T01:45:16;2.08;;;1.27;;
80273;SDS011;69576;51.902;-8.462;2023-11-18T01:47:45;3.08;;;1.38;;
80273;SDS011;69576;51.902;-8.462;2023-11-18T01:50:14;3.95;;;1.45;;
80273;SDS011;69576;51.902;-8.462;2023-11-18T01:52:42;4.57;;;1.60;;
80273;SDS011;69576;51.902;-8.462;2023-11-18T01:55:09;3.80;;;2.03;;
80273;SDS011;69576;51.902;-8.462;2023-11-18T01:57:35;3.58;;;1.40;;
80273;SDS011;69576;51.902;-8.462;2023-11-18T02:00:02;7.28;;;2.13;;
80273;SDS011;69576;51.902;-8.462;2023-11-18T02:02:31;6.95;;;1.75;;
80273;SDS011;69576;51.902;-8.462;2023-11-18T02:05:02;10.57;;;2.00;;
80273;SDS011;69576;51.902;-8.462;2023-11-18T02:07:31;9.57;;;2.22;;
80273;SDS011;69576;51.902;-8.462;2023-11-18T02:10:00;7.53;;;1.70;;
80273;SDS011;69576;51.902;-8.462;2023-11-18T02:12:38;10.55;;;2.38;;
80273;SDS011;69576;51.902;-8.462;2023-11-18T02:15:05;7.00;;;2.00;;
80273;SDS011;69576;51.902;-8.462;2023-11-18T02:17:38;7.63;;;1.88;;
80273;SDS011;69576;51.902;-8.462;2023-11-18T02:20:07;11.75;;;2.65;;
80273;SDS011;69576;51.902;-8.462;2023-11-18T02:22:43;8.10;;;1.85;;
80273;SDS011;69576;51.902;-8.462;2023-11-18T02:25:16;14.95;;;2.65;;
80273;SDS011;69576;51.902;-8.462;2023-11-18T02:27:46;11.98;;;2.60;;
80273;SDS011;69576;51.902;-8.462;2023-11-18T02:30:15;16.42;;;3.10;;
80273;SDS011;69576;51.902;-8.462;2023-11-18T02:32:51;12.57;;;3.25;;
80273;SDS011;69576;51.902;-8.462;2023-11-18T02:35:52;8.77;;;2.08;;
80273;SDS011;69576;51.902;-8.462;2023-11-18T02:38:31;13.48;;;3.03;;
80273;SDS011;69576;51.902;-8.462;2023-11-18T02:41:02;16.23;;;3.15;;
80273;SDS011;69576;51.902;-8.462;2023-11-18T02:43:34;17.98;;;3.88;;
80273;SDS011;69576;51.902;-8.462;2023-11-18T02:46:05;16.70;;;3.70;;
80273;SDS011;69576;51.902;-8.462;2023-11-18T02:48:32;17.08;;;3.85;;
80273;SDS011;69576;51.902;-8.462;2023-11-18T02:51:01;5.05;;;2.28;;
80273;SDS011;69576;51.902;-8.462;2023-11-18T02:53:29;7.70;;;2.80;;
80273;SDS011;69576;51.902;-8.462;2023-11-18T02:55:55;13.35;;;3.25;;
80273;SDS011;69576;51.902;-8.462;2023-11-18T02:58:28;12.10;;;3.22;;
80273;SDS011;69576;51.902;-8.462;2023-11-18T03:00:58;23.98;;;5.13;;
80273;SDS011;69576;51.902;-8.462;2023-11-18T03:03:26;9.50;;;2.63;;
80273;SDS011;69576;51.902;-8.462;2023-11-18T03:05:55;17.80;;;3.10;;
80273;SDS011;69576;51.902;-8.462;2023-11-18T03:08:21;8.20;;;2.83;;
80273;SDS011;69576;51.902;-8.462;2023-11-18T03:10:46;13.80;;;3.22;;
80273;SDS011;69576;51.902;-8.462;2023-11-18T03:13:17;12.68;;;2.97;;
80273;SDS011;69576;51.902;-8.462;2023-11-18T03:15:43;10.40;;;2.03;;
80273;SDS011;69576;51.902;-8.462;2023-11-18T03:18:13;12.20;;;2.95;;
80273;SDS011;69576;51.902;-8.462;2023-11-18T03:20:42;17.23;;;3.35;;
80273;SDS011;69576;51.902;-8.462;2023-11-18T03:23:13;15.57;;;2.92;;
80273;SDS011;69576;51.902;-8.462;2023-11-18T03:25:39;14.38;;;2.65;;
80273;SDS011;69576;51.902;-8.462;2023-11-18T03:28:07;10.93;;;3.10;;
80273;SDS011;69576;51.902;-8.462;2023-11-18T03:30:33;9.13;;;2.17;;
80273;SDS011;69576;51.902;-8.462;2023-11-18T03:33:02;17.85;;;3.40;;
80273;SDS011;69576;51.902;-8.462;2023-11-18T03:35:28;15.07;;;2.28;;
80273;SDS011;69576;51.902;-8.462;2023-11-18T03:37:55;14.20;;;2.22;;
80273;SDS011;69576;51.902;-8.462;2023-11-18T03:40:21;7.28;;;2.13;;
80273;SDS011;69576;51.902;-8.462;2023-11-18T03:42:49;13.77;;;2.75;;
80273;SDS011;69576;51.902;-8.462;2023-11-18T03:45:14;12.57;;;2.75;;
80273;SDS011;69576;51.902;-8.462;2023-11-18T03:47:42;20.10;;;3.28;;
80273;SDS011;69576;51.902;-8.462;2023-11-18T03:50:15;13.23;;;2.83;;
80273;SDS011;69576;51.902;-8.462;2023-11-18T03:52:41;16.63;;;3.00;;
80273;SDS011;69576;51.902;-8.462;2023-11-18T03:55:09;9.00;;;2.50;;
80273;SDS011;69576;51.902;-8.462;2023-11-18T03:57:40;14.60;;;2.88;;
80273;SDS011;69576;51.902;-8.462;2023-11-18T04:00:10;10.63;;;2.60;;
80273;SDS011;69576;51.902;-8.462;2023-11-18T04:02:37;15.07;;;3.72;;
80273;SDS011;69576;51.902;-8.462;2023-11-18T04:05:08;15.27;;;3.30;;
80273;SDS011;69576;51.902;-8.462;2023-11-18T04:07:34;2.03;;;1.15;;
80273;SDS011;69576;51.902;-8.462;2023-11-18T04:10:02;10.93;;;2.67;;
80273;SDS011;69576;51.902;-8.462;2023-11-18T04:12:31;10.68;;;2.05;;
80273;SDS011;69576;51.902;-8.462;2023-11-18T04:14:57;15.68;;;3.67;;
80273;SDS011;69576;51.902;-8.462;2023-11-18T04:17:25;14.63;;;3.70;;
80273;SDS011;69576;51.902;-8.462;2023-11-18T04:19:53;17.95;;;3.35;;
80273;SDS011;69576;51.902;-8.462;2023-11-18T04:22:23;19.92;;;4.35;;
80273;SDS011;69576;51.902;-8.462;2023-11-18T04:24:49;12.38;;;3.42;;
80273;SDS011;69576;51.902;-8.462;2023-11-18T04:27:15;18.52;;;3.90;;
80273;SDS011;69576;51.902;-8.462;2023-11-18T04:29:41;11.15;;;2.72;;
80273;SDS011;69576;51.902;-8.462;2023-11-18T04:32:10;20.63;;;4.07;;
80273;SDS011;69576;51.902;-8.462;2023-11-18T04:34:36;9.93;;;2.03;;
80273;SDS011;69576;51.902;-8.462;2023-11-18T04:37:04;12.95;;;2.85;;
80273;SDS011;69576;51.902;-8.462;2023-11-18T04:39:34;15.93;;;3.00;;
80273;SDS011;69576;51.902;-8.462;2023-11-18T04:42:00;13.23;;;3.63;;
80273;SDS011;69576;51.902;-8.462;2023-11-18T04:44:31;15.45;;;2.30;;
80273;SDS011;69576;51.902;-8.462;2023-11-18T04:46:56;10.15;;;2.92;;
80273;SDS011;69576;51.902;-8.462;2023-11-18T04:49:22;15.48;;;3.67;;
80273;SDS011;69576;51.902;-8.462;2023-11-18T04:51:48;14.63;;;3.08;;
80273;SDS011;69576;51.902;-8.462;2023-11-18T04:54:14;16.95;;;3.65;;
80273;SDS011;69576;51.902;-8.462;2023-11-18T04:56:40;19.73;;;3.40;;
80273;SDS011;69576;51.902;-8.462;2023-11-18T04:59:06;20.73;;;2.92;;
80273;SDS011;69576;51.902;-8.462;2023-11-18T05:01:32;18.77;;;4.28;;
80273;SDS011;69576;51.902;-8.462;2023-11-18T05:03:59;7.18;;;1.83;;
80273;SDS011;69576;51.902;-8.462;2023-11-18T05:06:25;27.95;;;5.05;;
80273;SDS011;69576;51.902;-8.462;2023-11-18T05:08:51;17.58;;;3.83;;
80273;SDS011;69576;51.902;-8.462;2023-11-18T05:11:17;17.27;;;3.53;;
80273;SDS011;69576;51.902;-8.462;2023-11-18T05:13:48;15.93;;;2.97;;
80273;SDS011;69576;51.902;-8.462;2023-11-18T05:16:14;16.45;;;2.90;;
80273;SDS011;69576;51.902;-8.462;2023-11-18T05:18:40;23.98;;;4.18;;
80273;SDS011;69576;51.902;-8.462;2023-11-18T05:21:06;12.15;;;3.70;;
80273;SDS011;69576;51.902;-8.462;2023-11-18T05:23:36;13.48;;;2.83;;
80273;SDS011;69576;51.902;-8.462;2023-11-18T05:26:04;23.52;;;4.60;;
80273;SDS011;69576;51.902;-8.462;2023-11-18T05:28:30;20.58;;;3.60;;
80273;SDS011;69576;51.902;-8.462;2023-11-18T05:30:57;15.50;;;2.88;;
80273;SDS011;69576;51.902;-8.462;2023-11-18T05:35:53;10.38;;;2.33;;
80273;SDS011;69576;51.902;-8.462;2023-11-18T05:38:21;15.57;;;3.88;;
80273;SDS011;69576;51.902;-8.462;2023-11-18T05:40:48;23.83;;;4.18;;
80273;SDS011;69576;51.902;-8.462;2023-11-18T05:43:28;9.07;;;2.90;;
80273;SDS011;69576;51.902;-8.462;2023-11-18T05:45:57;9.43;;;2.47;;
80273;SDS011;69576;51.902;-8.462;2023-11-18T05:48:52;17.85;;;3.28;;
80273;SDS011;69576;51.902;-8.462;2023-11-18T05:51:19;23.23;;;3.63;;
80273;SDS011;69576;51.902;-8.462;2023-11-18T05:53:48;26.42;;;4.15;;
80273;SDS011;69576;51.902;-8.462;2023-11-18T05:56:14;18.25;;;2.97;;
80273;SDS011;69576;51.902;-8.462;2023-11-18T05:58:43;22.52;;;4.55;;
80273;SDS011;69576;51.902;-8.462;2023-11-18T06:01:09;16.02;;;4.00;;
80273;SDS011;69576;51.902;-8.462;2023-11-18T06:03:37;16.63;;;3.80;;
80273;SDS011;69576;51.902;-8.462;2023-11-18T06:06:14;12.90;;;3.55;;
80273;SDS011;69576;51.902;-8.462;2023-11-18T06:08:44;17.75;;;3.55;;
80273;SDS011;69576;51.902;-8.462;2023-11-18T06:11:10;14.43;;;3.53;;
80273;SDS011;69576;51.902;-8.462;2023-11-18T06:13:43;12.82;;;4.00;;
80273;SDS011;69576;51.902;-8.462;2023-11-18T06:18:48;17.38;;;2.85;;
80273;SDS011;69576;51.902;-8.462;2023-11-18T06:21:19;19.77;;;3.67;;
80273;SDS011;69576;51.902;-8.462;2023-11-18T06:23:49;18.75;;;3.72;;
80273;SDS011;69576;51.902;-8.462;2023-11-18T06:26:15;27.55;;;5.20;;
80273;SDS011;69576;51.902;-8.462;2023-11-18T06:31:10;13.07;;;2.55;;
80273;SDS011;69576;51.902;-8.462;2023-11-18T06:33:46;18.02;;;3.60;;
80273;SDS011;69576;51.902;-8.462;2023-11-18T06:38:47;14.05;;;3.50;;
80273;SDS011;69576;51.902;-8.462;2023-11-18T06:41:19;19.83;;;3.53;;
80273;SDS011;69576;51.902;-8.462;2023-11-18T06:43:48;18.65;;;3.40;;
80273;SDS011;69576;51.902;-8.462;2023-11-18T06:46:23;16.88;;;2.83;;
80273;SDS011;69576;51.902;-8.462;2023-11-18T06:48:59;20.83;;;3.67;;
80273;SDS011;69576;51.902;-8.462;2023-11-18T06:51:29;24.13;;;4.10;;
80273;SDS011;69576;51.902;-8.462;2023-11-18T06:54:00;9.63;;;2.80;;
80273;SDS011;69576;51.902;-8.462;2023-11-18T06:56:33;23.23;;;4.68;;
80273;SDS011;69576;51.902;-8.462;2023-11-18T06:59:08;20.17;;;4.38;;
80273;SDS011;69576;51.902;-8.462;2023-11-18T07:01:46;18.73;;;3.45;;
80273;SDS011;69576;51.902;-8.462;2023-11-18T07:04:16;19.20;;;3.75;;
80273;SDS011;69576;51.902;-8.462;2023-11-18T07:06:47;16.98;;;3.42;;
80273;SDS011;69576;51.902;-8.462;2023-11-18T07:09:15;12.23;;;4.03;;
80273;SDS011;69576;51.902;-8.462;2023-11-18T07:11:46;17.25;;;3.20;;
80273;SDS011;69576;51.902;-8.462;2023-11-18T07:14:16;23.90;;;3.90;;
80273;SDS011;69576;51.902;-8.462;2023-11-18T07:16:42;17.52;;;4.05;;
80273;SDS011;69576;51.902;-8.462;2023-11-18T07:19:09;18.25;;;3.97;;
80273;SDS011;69576;51.902;-8.462;2023-11-18T07:21:47;15.88;;;3.20;;
80273;SDS011;69576;51.902;-8.462;2023-11-18T07:24:14;24.02;;;4.15;;
80273;SDS011;69576;51.902;-8.462;2023-11-18T07:26:40;12.68;;;3.22;;
80273;SDS011;69576;51.902;-8.462;2023-11-18T07:29:09;29.85;;;4.03;;
80273;SDS011;69576;51.902;-8.462;2023-11-18T07:31:37;28.98;;;4.40;;
80273;SDS011;69576;51.902;-8.462;2023-11-18T07:34:03;27.73;;;4.72;;
80273;SDS011;69576;51.902;-8.462;2023-11-18T07:36:30;18.48;;;3.70;;
80273;SDS011;69576;51.902;-8.462;2023-11-18T07:38:57;22.25;;;4.70;;
80273;SDS011;69576;51.902;-8.462;2023-11-18T07:41:26;22.85;;;3.70;;
80273;SDS011;69576;51.902;-8.462;2023-11-18T07:43:55;18.35;;;4.30;;
80273;SDS011;69576;51.902;-8.462;2023-11-18T07:48:51;11.73;;;2.38;;
80273;SDS011;69576;51.902;-8.462;2023-11-18T07:51:21;17.45;;;3.22;;
80273;SDS011;69576;51.902;-8.462;2023-11-18T07:53:48;20.95;;;3.20;;
80273;SDS011;69576;51.902;-8.462;2023-11-18T07:56:14;22.45;;;4.63;;
80273;SDS011;69576;51.902;-8.462;2023-11-18T07:58:41;19.02;;;3.78;;
80273;SDS011;69576;51.902;-8.462;2023-11-18T08:01:10;13.60;;;2.65;;
80273;SDS011;69576;51.902;-8.462;2023-11-18T08:03:39;15.32;;;3.55;;
80273;SDS011;69576;51.902;-8.462;2023-11-18T08:06:07;13.82;;;3.40;;
80273;SDS011;69576;51.902;-8.462;2023-11-18T08:08:34;14.50;;;2.85;;
80273;SDS011;69576;51.902;-8.462;2023-11-18T08:11:02;7.68;;;2.40;;
80273;SDS011;69576;51.902;-8.462;2023-11-18T08:13:31;12.07;;;2.95;;
80273;SDS011;69576;51.902;-8.462;2023-11-18T08:15:57;18.63;;;2.88;;
80273;SDS011;69576;51.902;-8.462;2023-11-18T08:18:23;15.55;;;3.72;;
80273;SDS011;69576;51.902;-8.462;2023-11-18T08:20:49;11.60;;;3.17;;
80273;SDS011;69576;51.902;-8.462;2023-11-18T08:23:15;10.73;;;3.20;;
80273;SDS011;69576;51.902;-8.462;2023-11-18T08:25:41;12.75;;;4.40;;
80273;SDS011;69576;51.902;-8.462;2023-11-18T08:28:07;16.48;;;3.60;;
80273;SDS011;69576;51.902;-8.462;2023-11-18T08:30:34;21.92;;;3.97;;
80273;SDS011;69576;51.902;-8.462;2023-11-18T08:33:04;9.65;;;3.47;;
80273;SDS011;69576;51.902;-8.462;2023-11-18T08:35:36;7.90;;;2.15;;
80273;SDS011;69576;51.902;-8.462;2023-11-18T08:38:05;7.68;;;2.30;;
80273;SDS011;69576;51.902;-8.462;2023-11-18T08:40:34;19.40;;;3.47;;
80273;SDS011;69576;51.902;-8.462;2023-11-18T08:43:00;19.05;;;3.17;;
80273;SDS011;69576;51.902;-8.462;2023-11-18T08:45:30;20.90;;;4.03;;
80273;SDS011;69576;51.902;-8.462;2023-11-18T08:48:01;24.40;;;4.50;;
80273;SDS011;69576;51.902;-8.462;2023-11-18T08:50:38;21.20;;;5.00;;
80273;SDS011;69576;51.902;-8.462;2023-11-18T08:53:08;24.25;;;4.68;;
80273;SDS011;69576;51.902;-8.462;2023-11-18T08:55:34;29.88;;;4.82;;
80273;SDS011;69576;51.902;-8.462;2023-11-18T08:58:15;29.55;;;5.25;;
80273;SDS011;69576;51.902;-8.462;2023-11-18T09:00:48;19.95;;;4.40;;
80273;SDS011;69576;51.902;-8.462;2023-11-18T09:03:29;7.85;;;2.78;;
80273;SDS011;69576;51.902;-8.462;2023-11-18T09:06:03;18.13;;;4.93;;
80273;SDS011;69576;51.902;-8.462;2023-11-18T09:08:34;18.60;;;4.22;;
80273;SDS011;69576;51.902;-8.462;2023-11-18T09:11:06;24.15;;;4.80;;
80273;SDS011;69576;51.902;-8.462;2023-11-18T09:13:44;17.13;;;2.83;;
80273;SDS011;69576;51.902;-8.462;2023-11-18T09:16:14;18.05;;;3.28;;
80273;SDS011;69576;51.902;-8.462;2023-11-18T09:18:41;21.33;;;4.07;;
80273;SDS011;69576;51.902;-8.462;2023-11-18T09:21:10;11.75;;;2.75;;
80273;SDS011;69576;51.902;-8.462;2023-11-18T09:23:40;19.63;;;3.28;;
80273;SDS011;69576;51.902;-8.462;2023-11-18T09:26:07;16.52;;;4.07;;
80273;SDS011;69576;51.902;-8.462;2023-11-18T09:28:36;25.00;;;5.55;;
80273;SDS011;69576;51.902;-8.462;2023-11-18T09:31:03;29.17;;;5.60;;
80273;SDS011;69576;51.902;-8.462;2023-11-18T09:33:36;27.05;;;5.55;;
80273;SDS011;69576;51.902;-8.462;2023-11-18T09:36:12;19.60;;;3.72;;
80273;SDS011;69576;51.902;-8.462;2023-11-18T09:38:43;26.15;;;5.85;;
80273;SDS011;69576;51.902;-8.462;2023-11-18T09:41:18;23.85;;;5.53;;
80273;SDS011;69576;51.902;-8.462;2023-11-18T09:43:49;26.35;;;4.38;;
80273;SDS011;69576;51.902;-8.462;2023-11-18T09:46:26;21.70;;;4.45;;
80273;SDS011;69576;51.902;-8.462;2023-11-18T09:49:14;27.38;;;6.32;;
80273;SDS011;69576;51.902;-8.462;2023-11-18T09:51:54;14.32;;;4.60;;
80273;SDS011;69576;51.902;-8.462;2023-11-18T09:54:36;25.45;;;5.10;;
80273;SDS011;69576;51.902;-8.462;2023-11-18T09:59:42;17.80;;;4.88;;
80273;SDS011;69576;51.902;-8.462;2023-11-18T10:02:20;26.80;;;3.58;;
80273;SDS011;69576;51.902;-8.462;2023-11-18T10:04:54;16.30;;;3.95;;
80273;SDS011;69576;51.902;-8.462;2023-11-18T10:07:25;23.35;;;5.75;;
80273;SDS011;69576;51.902;-8.462;2023-11-18T10:09:54;18.52;;;4.35;;
80273;SDS011;69576;51.902;-8.462;2023-11-18T10:12:22;19.80;;;5.55;;
80273;SDS011;69576;51.902;-8.462;2023-11-18T10:14:51;25.88;;;4.55;;
80273;SDS011;69576;51.902;-8.462;2023-11-18T10:17:21;21.65;;;5.53;;
80273;SDS011;69576;51.902;-8.462;2023-11-18T10:19:57;32.92;;;5.90;;
80273;SDS011;69576;51.902;-8.462;2023-11-18T10:22:26;30.98;;;5.15;;
80273;SDS011;69576;51.902;-8.462;2023-11-18T10:24:57;19.35;;;4.10;;
80273;SDS011;69576;51.902;-8.462;2023-11-18T10:27:26;23.15;;;4.43;;
80273;SDS011;69576;51.902;-8.462;2023-11-18T10:29:56;14.80;;;3.50;;
80273;SDS011;69576;51.902;-8.462;2023-11-18T10:32:22;19.42;;;4.55;;
80273;SDS011;69576;51.902;-8.462;2023-11-18T10:34:55;16.10;;;3.58;;
80273;SDS011;69576;51.902;-8.462;2023-11-18T10:37:25;28.27;;;4.75;;
80273;SDS011;69576;51.902;-8.462;2023-11-18T10:39:51;19.27;;;4.43;;
80273;SDS011;69576;51.902;-8.462;2023-11-18T10:42:19;17.05;;;4.00;;
80273;SDS011;69576;51.902;-8.462;2023-11-18T10:44:55;26.65;;;5.30;;
80273;SDS011;69576;51.902;-8.462;2023-11-18T10:47:32;24.70;;;6.03;;
80273;SDS011;69576;51.902;-8.462;2023-11-18T10:49:58;21.73;;;4.13;;
80273;SDS011;69576;51.902;-8.462;2023-11-18T10:52:24;28.60;;;5.00;;
80273;SDS011;69576;51.902;-8.462;2023-11-18T10:55:00;28.77;;;6.10;;
80273;SDS011;69576;51.902;-8.462;2023-11-18T10:57:32;28.23;;;5.32;;
80273;SDS011;69576;51.902;-8.462;2023-11-18T11:00:01;25.63;;;4.07;;
80273;SDS011;69576;51.902;-8.462;2023-11-18T11:02:31;18.02;;;3.95;;
80273;SDS011;69576;51.902;-8.462;2023-11-18T11:05:06;28.88;;;5.13;;
80273;SDS011;69576;51.902;-8.462;2023-11-18T11:07:41;20.08;;;4.38;;
80273;SDS011;69576;51.902;-8.462;2023-11-18T11:10:10;24.33;;;5.53;;
80273;SDS011;69576;51.902;-8.462;2023-11-18T11:15:40;17.70;;;3.63;;
80273;SDS011;69576;51.902;-8.462;2023-11-18T11:18:10;22.58;;;3.90;;
80273;SDS011;69576;51.902;-8.462;2023-11-18T11:21:43;23.10;;;5.10;;
80273;SDS011;69576;51.902;-8.462;2023-11-18T11:23:49;23.58;;;6.32;;
80273;SDS011;69576;51.902;-8.462;2023-11-18T11:26:44;32.03;;;4.75;;
80273;SDS011;69576;51.902;-8.462;2023-11-18T11:32:02;15.48;;;5.22;;
80273;SDS011;69576;51.902;-8.462;2023-11-18T11:34:55;22.30;;;4.70;;
80273;SDS011;69576;51.902;-8.462;2023-11-18T11:37:32;14.13;;;4.13;;
80273;SDS011;69576;51.902;-8.462;2023-11-18T11:40:07;27.48;;;6.47;;
80273;SDS011;69576;51.902;-8.462;2023-11-18T11:42:35;15.80;;;3.42;;
80273;SDS011;69576;51.902;-8.462;2023-11-18T11:45:01;27.98;;;5.10;;
80273;SDS011;69576;51.902;-8.462;2023-11-18T11:47:28;16.55;;;4.22;;
80273;SDS011;69576;51.902;-8.462;2023-11-18T11:50:11;14.38;;;2.95;;
80273;SDS011;69576;51.902;-8.462;2023-11-18T11:52:48;16.80;;;3.72;;
80273;SDS011;69576;51.902;-8.462;2023-11-18T11:55:23;27.25;;;5.53;;
80273;SDS011;69576;51.902;-8.462;2023-11-18T11:57:58;25.23;;;4.70;;
80273;SDS011;69576;51.902;-8.462;2023-11-18T12:00:25;18.08;;;4.97;;
80273;SDS011;69576;51.902;-8.462;2023-11-18T12:03:00;24.35;;;4.57;;
80273;SDS011;69576;51.902;-8.462;2023-11-18T12:05:29;22.83;;;8.02;;
80273;SDS011;69576;51.902;-8.462;2023-11-18T12:07:58;22.42;;;4.00;;
80273;SDS011;69576;51.902;-8.462;2023-11-18T12:10:29;18.20;;;3.90;;
80273;SDS011;69576;51.902;-8.462;2023-11-18T12:13:08;21.00;;;4.53;;
80273;SDS011;69576;51.902;-8.462;2023-11-18T12:15:55;16.77;;;4.30;;
80273;SDS011;69576;51.902;-8.462;2023-11-18T12:18:31;13.75;;;3.90;;
80273;SDS011;69576;51.902;-8.462;2023-11-18T12:20:59;22.25;;;4.88;;
80273;SDS011;69576;51.902;-8.462;2023-11-18T12:25:54;12.45;;;3.03;;
80273;SDS011;69576;51.902;-8.462;2023-11-18T12:30:55;17.75;;;4.07;;
80273;SDS011;69576;51.902;-8.462;2023-11-18T12:33:25;22.73;;;4.55;;
80273;SDS011;69576;51.902;-8.462;2023-11-18T12:41:41;21.60;;;3.70;;
80273;SDS011;69576;51.902;-8.462;2023-11-18T12:47:00;26.90;;;4.53;;
80273;SDS011;69576;51.902;-8.462;2023-11-18T12:49:47;18.73;;;5.07;;
80273;SDS011;69576;51.902;-8.462;2023-11-18T12:52:22;19.08;;;5.53;;
80273;SDS011;69576;51.902;-8.462;2023-11-18T12:57:17;7.93;;;2.92;;
80273;SDS011;69576;51.902;-8.462;2023-11-18T12:59:50;13.70;;;4.13;;
80273;SDS011;69576;51.902;-8.462;2023-11-18T13:02:16;17.70;;;4.60;;
80273;SDS011;69576;51.902;-8.462;2023-11-18T13:04:47;10.20;;;3.72;;
80273;SDS011;69576;51.902;-8.462;2023-11-18T13:07:18;12.57;;;6.25;;
80273;SDS011;69576;51.902;-8.462;2023-11-18T13:09:48;21.63;;;5.13;;
80273;SDS011;69576;51.902;-8.462;2023-11-18T13:12:15;17.90;;;3.60;;
80273;SDS011;69576;51.902;-8.462;2023-11-18T13:14:45;23.77;;;3.80;;
80273;SDS011;69576;51.902;-8.462;2023-11-18T13:17:15;22.35;;;5.47;;
80273;SDS011;69576;51.902;-8.462;2023-11-18T13:19:46;27.25;;;4.00;;
80273;SDS011;69576;51.902;-8.462;2023-11-18T13:22:16;15.48;;;3.85;;
80273;SDS011;69576;51.902;-8.462;2023-11-18T13:24:44;23.55;;;4.75;;
80273;SDS011;69576;51.902;-8.462;2023-11-18T13:27:15;23.50;;;5.15;;
80273;SDS011;69576;51.902;-8.462;2023-11-18T13:29:46;17.60;;;3.67;;
80273;SDS011;69576;51.902;-8.462;2023-11-18T13:32:18;21.08;;;5.03;;
80273;SDS011;69576;51.902;-8.462;2023-11-18T13:34:48;15.98;;;4.18;;
80273;SDS011;69576;51.902;-8.462;2023-11-18T13:37:18;20.67;;;4.03;;
80273;SDS011;69576;51.902;-8.462;2023-11-18T13:39:56;25.80;;;5.15;;
80273;SDS011;69576;51.902;-8.462;2023-11-18T13:42:26;18.13;;;3.58;;
80273;SDS011;69576;51.902;-8.462;2023-11-18T13:45:02;20.02;;;3.28;;
80273;SDS011;69576;51.902;-8.462;2023-11-18T13:47:34;24.88;;;3.85;;
80273;SDS011;69576;51.902;-8.462;2023-11-18T13:50:01;11.88;;;3.35;;
80273;SDS011;69576;51.902;-8.462;2023-11-18T13:52:35;22.17;;;4.22;;
80273;SDS011;69576;51.902;-8.462;2023-11-18T13:55:04;20.85;;;4.38;;
80273;SDS011;69576;51.902;-8.462;2023-11-18T13:57:38;23.00;;;4.30;;
80273;SDS011;69576;51.902;-8.462;2023-11-18T14:00:07;16.10;;;3.47;;
80273;SDS011;69576;51.902;-8.462;2023-11-18T14:02:40;18.98;;;4.32;;
80273;SDS011;69576;51.902;-8.462;2023-11-18T14:05:14;14.68;;;2.72;;
80273;SDS011;69576;51.902;-8.462;2023-11-18T14:07:41;18.20;;;4.53;;
80273;SDS011;69576;51.902;-8.462;2023-11-18T14:10:08;10.88;;;3.05;;
80273;SDS011;69576;51.902;-8.462;2023-11-18T14:12:40;10.93;;;3.40;;
80273;SDS011;69576;51.902;-8.462;2023-11-18T14:15:37;19.45;;;5.30;;
80273;SDS011;69576;51.902;-8.462;2023-11-18T14:18:03;23.77;;;4.82;;
80273;SDS011;69576;51.902;-8.462;2023-11-18T14:20:29;25.63;;;4.70;;
80273;SDS011;69576;51.902;-8.462;2023-11-18T14:23:00;20.58;;;4.28;;
80273;SDS011;69576;51.902;-8.462;2023-11-18T14:25:28;28.35;;;4.82;;
80273;SDS011;69576;51.902;-8.462;2023-11-18T14:27:57;18.45;;;4.32;;
80273;SDS011;69576;51.902;-8.462;2023-11-18T14:30:23;17.23;;;4.47;;
80273;SDS011;69576;51.902;-8.462;2023-11-18T14:32:55;30.98;;;5.28;;
80273;SDS011;69576;51.902;-8.462;2023-11-18T14:35:23;27.17;;;5.57;;
80273;SDS011;69576;51.902;-8.462;2023-11-18T14:37:49;22.30;;;4.47;;
80273;SDS011;69576;51.902;-8.462;2023-11-18T14:40:17;23.73;;;5.20;;
80273;SDS011;69576;51.902;-8.462;2023-11-18T14:42:45;20.65;;;4.20;;
80273;SDS011;69576;51.902;-8.462;2023-11-18T14:45:13;26.50;;;5.45;;
80273;SDS011;69576;51.902;-8.462;2023-11-18T14:47:40;19.95;;;3.40;;
80273;SDS011;69576;51.902;-8.462;2023-11-18T14:50:09;15.43;;;3.70;;
80273;SDS011;69576;51.902;-8.462;2023-11-18T14:52:49;5.25;;;2.17;;
80273;SDS011;69576;51.902;-8.462;2023-11-18T14:55:27;11.10;;;3.22;;
80273;SDS011;69576;51.902;-8.462;2023-11-18T14:57:57;12.95;;;3.35;;
80273;SDS011;69576;51.902;-8.462;2023-11-18T15:00:26;14.82;;;3.67;;
80273;SDS011;69576;51.902;-8.462;2023-11-18T15:02:53;11.07;;;3.65;;
80273;SDS011;69576;51.902;-8.462;2023-11-18T15:05:22;17.23;;;4.43;;
80273;SDS011;69576;51.902;-8.462;2023-11-18T15:07:52;16.23;;;3.42;;
80273;SDS011;69576;51.902;-8.462;2023-11-18T15:10:24;12.73;;;3.13;;
80273;SDS011;69576;51.902;-8.462;2023-11-18T15:12:57;13.07;;;3.38;;
80273;SDS011;69576;51.902;-8.462;2023-11-18T15:15:26;19.67;;;4.30;;
80273;SDS011;69576;51.902;-8.462;2023-11-18T15:18:08;12.20;;;2.67;;